createdAt,value
2018-06-23T00:00:45.396Z,11.77
2018-06-23T00:01:45.333Z,11.82
2018-06-23T00:02:45.272Z,11.76
2018-06-23T00:03:45.207Z,11.84
2018-06-23T00:04:45.143Z,11.88
2018-06-23T00:05:45.080Z,11.82
2018-06-23T00:06:45.021Z,11.80
2018-06-23T00:07:44.952Z,11.77
2018-06-23T00:08:44.890Z,11.80
2018-06-23T00:09:44.830Z,11.79
2018-06-23T00:10:44.764Z,11.82
2018-06-23T00:11:44.696Z,11.76
2018-06-23T00:12:44.641Z,11.80
2018-06-23T00:13:44.573Z,11.88
2018-06-23T00:14:44.512Z,11.82
2018-06-23T00:15:44.448Z,11.77
2018-06-23T00:16:44.385Z,11.62
2018-06-23T00:17:44.326Z,11.56
2018-06-23T00:18:44.258Z,11.54
2018-06-23T00:19:44.195Z,11.51
2018-06-23T00:20:44.133Z,11.45
2018-06-23T00:21:44.070Z,11.49
2018-06-23T00:22:44.007Z,11.40
2018-06-23T00:23:43.943Z,11.40
2018-06-23T00:24:43.880Z,11.46
2018-06-23T00:25:43.816Z,11.46
2018-06-23T00:26:43.758Z,11.45
2018-06-23T00:27:43.689Z,11.51
2018-06-23T00:28:43.630Z,11.54
2018-06-23T00:29:43.584Z,11.55
2018-06-23T00:30:43.501Z,11.51
2018-06-23T00:31:43.442Z,11.48
2018-06-23T00:32:43.373Z,11.49
2018-06-23T00:33:43.313Z,11.41
2018-06-23T00:34:43.251Z,11.33
2018-06-23T00:35:43.215Z,11.37
2018-06-23T00:36:43.121Z,11.33
2018-06-23T00:37:43.061Z,11.37
2018-06-23T00:38:42.993Z,11.33
2018-06-23T00:39:42.931Z,11.33
2018-06-23T00:40:42.869Z,11.43
2018-06-23T00:41:42.804Z,11.36
2018-06-23T00:42:42.743Z,11.31
2018-06-23T00:43:42.684Z,11.28
2018-06-23T00:44:42.615Z,11.27
2018-06-23T00:45:42.552Z,11.15
2018-06-23T00:46:42.490Z,11.18
2018-06-23T00:47:42.426Z,11.20
2018-06-23T00:48:42.361Z,11.15
2018-06-23T00:49:42.299Z,11.16
2018-06-23T00:50:42.236Z,11.20
2018-06-23T00:51:42.172Z,11.19
2018-06-23T00:52:42.110Z,11.23
2018-06-23T00:53:42.045Z,11.22
2018-06-23T00:54:41.984Z,11.28
2018-06-23T00:55:41.922Z,11.28
2018-06-23T00:56:41.856Z,11.27
2018-06-23T00:57:41.797Z,11.33
2018-06-23T00:58:41.731Z,11.27
2018-06-23T00:59:41.670Z,11.22
2018-06-23T01:00:41.604Z,11.15
2018-06-23T01:01:41.542Z,11.20
2018-06-23T01:02:41.477Z,11.19
2018-06-23T01:03:41.415Z,11.18
2018-06-23T01:04:41.350Z,11.18
2018-06-23T01:05:41.287Z,11.20
2018-06-23T01:06:41.224Z,11.18
2018-06-23T01:07:41.161Z,11.23
2018-06-23T01:08:41.097Z,11.25
2018-06-23T01:09:41.037Z,11.28
2018-06-23T01:10:40.970Z,11.31
2018-06-23T01:11:40.917Z,11.34
2018-06-23T01:12:40.842Z,11.41
2018-06-23T01:13:40.780Z,11.37
2018-06-23T01:14:40.718Z,11.28
2018-06-23T01:15:40.653Z,11.38
2018-06-23T01:16:40.590Z,11.40
2018-06-23T01:17:40.530Z,11.38
2018-06-23T01:18:40.463Z,11.36
2018-06-23T01:19:40.404Z,11.30
2018-06-23T01:20:40.335Z,11.28
2018-06-23T01:21:40.274Z,11.27
2018-06-23T01:22:40.210Z,11.27
2018-06-23T01:23:40.147Z,11.22
2018-06-23T01:24:40.084Z,11.23
2018-06-23T01:25:40.020Z,11.36
2018-06-23T01:26:39.958Z,11.48
2018-06-23T01:27:39.898Z,11.31
2018-06-23T01:28:39.832Z,11.33
2018-06-23T01:29:39.766Z,11.30
2018-06-23T01:30:39.703Z,11.30
2018-06-23T01:31:39.642Z,11.28
2018-06-23T01:32:39.579Z,11.25
2018-06-23T01:33:39.514Z,11.31
2018-06-23T01:34:39.451Z,11.31
2018-06-23T01:35:39.390Z,11.33
2018-06-23T01:36:39.323Z,11.27
2018-06-23T01:37:39.260Z,11.27
2018-06-23T01:38:39.198Z,11.12
2018-06-23T01:39:39.138Z,11.18
2018-06-23T01:40:39.070Z,11.16
2018-06-23T01:41:39.005Z,11.13
2018-06-23T01:42:38.943Z,11.23
2018-06-23T01:43:38.880Z,11.16
2018-06-23T01:44:38.816Z,11.16
2018-06-23T01:45:38.753Z,11.19
2018-06-23T01:46:38.689Z,11.15
2018-06-23T01:47:38.630Z,11.09
2018-06-23T01:48:38.561Z,11.00
2018-06-23T01:49:38.502Z,11.19
2018-06-23T01:50:38.440Z,11.18
2018-06-23T01:51:38.402Z,11.16
2018-06-23T01:52:38.309Z,11.18
2018-06-23T01:53:38.244Z,11.20
2018-06-23T01:54:38.181Z,11.20
2018-06-23T01:55:38.119Z,11.20
2018-06-23T01:56:38.054Z,11.20
2018-06-23T01:57:37.991Z,11.22
2018-06-23T01:58:37.928Z,11.23
2018-06-23T01:59:37.865Z,11.20
2018-06-23T02:00:37.803Z,11.13
2018-06-23T02:01:37.743Z,11.20
2018-06-23T02:02:37.679Z,11.15
2018-06-23T02:03:37.612Z,11.19
2018-06-23T02:04:37.549Z,11.18
2018-06-23T02:05:37.485Z,11.13
2018-06-23T02:06:37.423Z,11.18
2018-06-23T02:07:37.357Z,11.19
2018-06-23T02:08:37.295Z,11.13
2018-06-23T02:09:37.234Z,11.03
2018-06-23T02:10:37.167Z,11.09
2018-06-23T02:11:37.104Z,11.00
2018-06-23T02:12:37.041Z,11.04
2018-06-23T02:13:36.978Z,11.09
2018-06-23T02:14:36.915Z,11.03
2018-06-23T02:15:36.852Z,11.09
2018-06-23T02:16:36.786Z,11.01
2018-06-23T02:17:36.726Z,11.04
2018-06-23T02:18:36.662Z,11.03
2018-06-23T02:19:36.597Z,10.97
2018-06-23T02:20:36.533Z,11.01
2018-06-23T02:21:36.472Z,10.93
2018-06-23T02:22:36.408Z,10.95
2018-06-23T02:23:36.344Z,10.90
2018-06-23T02:24:36.280Z,10.87
2018-06-23T02:25:36.216Z,10.82
2018-06-23T02:26:36.153Z,10.79
2018-06-23T02:27:36.088Z,10.86
2018-06-23T02:28:36.027Z,10.80
2018-06-23T02:29:35.963Z,10.82
2018-06-23T02:30:35.900Z,10.73
2018-06-23T02:31:35.837Z,10.76
2018-06-23T02:32:35.773Z,10.80
2018-06-23T02:33:35.710Z,10.68
2018-06-23T02:34:35.648Z,10.79
2018-06-23T02:35:35.586Z,10.65
2018-06-23T02:36:35.517Z,10.68
2018-06-23T02:37:35.456Z,10.67
2018-06-23T02:38:35.393Z,10.72
2018-06-23T02:39:35.329Z,10.68
2018-06-23T02:40:35.266Z,10.60
2018-06-23T02:41:35.208Z,10.72
2018-06-23T02:42:35.138Z,10.64
2018-06-23T02:43:35.076Z,10.70
2018-06-23T02:44:35.013Z,10.67
2018-06-23T02:45:34.951Z,10.70
2018-06-23T02:46:34.885Z,10.72
2018-06-23T02:47:34.821Z,10.68
2018-06-23T02:48:34.757Z,10.67
2018-06-23T02:49:34.694Z,10.64
2018-06-23T02:50:34.631Z,10.64
2018-06-23T02:51:34.567Z,10.68
2018-06-23T02:52:34.502Z,10.65
2018-06-23T02:53:34.449Z,10.68
2018-06-23T02:54:34.377Z,10.64
2018-06-23T02:55:34.313Z,10.64
2018-06-23T02:56:34.251Z,10.64
2018-06-23T02:57:34.188Z,10.55
2018-06-23T02:58:34.122Z,10.64
2018-06-23T02:59:34.060Z,10.65
2018-06-23T03:00:33.995Z,10.64
2018-06-23T03:01:33.937Z,10.68
2018-06-23T03:02:33.868Z,10.65
2018-06-23T03:03:33.805Z,10.68
2018-06-23T03:04:33.741Z,10.60
2018-06-23T03:05:33.676Z,10.67
2018-06-23T03:06:33.615Z,10.65
2018-06-23T03:07:33.552Z,10.67
2018-06-23T03:08:33.486Z,10.67
2018-06-23T03:09:33.423Z,10.67
2018-06-23T03:10:33.361Z,10.75
2018-06-23T03:11:33.300Z,10.65
2018-06-23T03:12:33.233Z,10.72
2018-06-23T03:13:33.169Z,10.61
2018-06-23T03:14:33.107Z,10.70
2018-06-23T03:15:33.043Z,10.64
2018-06-23T03:16:32.978Z,10.62
2018-06-23T03:17:32.914Z,10.60
2018-06-23T03:18:32.851Z,10.55
2018-06-23T03:19:32.788Z,10.64
2018-06-23T03:20:32.726Z,10.62
2018-06-23T03:21:32.661Z,10.54
2018-06-23T03:22:32.597Z,10.54
2018-06-23T03:23:32.534Z,10.55
2018-06-23T03:24:32.471Z,10.55
2018-06-23T03:25:32.407Z,10.48
2018-06-23T03:26:32.343Z,10.54
2018-06-23T03:27:32.283Z,10.46
2018-06-23T03:28:32.217Z,10.52
2018-06-23T03:29:32.152Z,10.46
2018-06-23T03:30:32.090Z,10.46
2018-06-23T03:31:32.027Z,10.43
2018-06-23T03:32:31.964Z,10.45
2018-06-23T03:33:31.899Z,10.46
2018-06-23T03:34:31.836Z,10.45
2018-06-23T03:35:31.773Z,10.42
2018-06-23T03:36:31.711Z,10.38
2018-06-23T03:37:31.645Z,10.48
2018-06-23T03:38:31.581Z,10.42
2018-06-23T03:39:31.517Z,10.45
2018-06-23T03:40:31.454Z,10.39
2018-06-23T03:41:31.391Z,10.42
2018-06-23T03:42:31.326Z,10.41
2018-06-23T03:43:31.265Z,10.41
2018-06-23T03:44:31.200Z,10.39
2018-06-23T03:45:31.138Z,10.42
2018-06-23T03:46:31.072Z,10.48
2018-06-23T03:47:31.010Z,10.52
2018-06-23T03:48:30.946Z,10.43
2018-06-23T03:49:30.883Z,10.46
2018-06-23T03:50:30.818Z,10.55
2018-06-23T03:51:30.755Z,10.45
2018-06-23T03:52:30.692Z,10.48
2018-06-23T03:53:30.628Z,10.45
2018-06-23T03:54:30.564Z,10.60
2018-06-23T03:55:30.502Z,10.52
2018-06-23T03:56:30.435Z,10.62
2018-06-23T03:57:30.374Z,10.57
2018-06-23T03:58:30.311Z,10.61
2018-06-23T03:59:30.246Z,10.68
2018-06-23T04:00:30.191Z,10.65
2018-06-23T04:01:30.119Z,10.65
2018-06-23T04:02:30.057Z,10.68
2018-06-23T04:03:29.988Z,10.67
2018-06-23T04:04:29.929Z,10.75
2018-06-23T04:05:29.863Z,10.70
2018-06-23T04:06:29.801Z,10.78
2018-06-23T04:07:29.739Z,10.90
2018-06-23T04:08:29.677Z,10.83
2018-06-23T04:09:29.611Z,10.79
2018-06-23T04:10:29.545Z,10.75
2018-06-23T04:11:29.528Z,10.76
2018-06-23T04:12:29.420Z,10.85
2018-06-23T04:13:29.356Z,10.80
2018-06-23T04:14:29.294Z,10.87
2018-06-23T04:15:29.230Z,10.95
2018-06-23T04:16:29.165Z,10.93
2018-06-23T04:17:29.103Z,11.05
2018-06-23T04:18:29.038Z,11.01
2018-06-23T04:19:28.977Z,11.09
2018-06-23T04:20:28.910Z,10.98
2018-06-23T04:21:28.849Z,11.01
2018-06-23T04:22:28.784Z,11.09
2018-06-23T04:23:28.718Z,11.04
2018-06-23T04:24:28.658Z,10.95
2018-06-23T04:25:28.593Z,10.86
2018-06-23T04:26:28.530Z,10.76
2018-06-23T04:27:28.467Z,10.73
2018-06-23T04:28:28.403Z,10.75
2018-06-23T04:29:28.340Z,10.86
2018-06-23T04:30:28.279Z,10.85
2018-06-23T04:31:28.215Z,10.83
2018-06-23T04:32:28.150Z,10.90
2018-06-23T04:33:28.087Z,10.86
2018-06-23T04:34:28.023Z,10.93
2018-06-23T04:35:27.962Z,10.86
2018-06-23T04:36:27.896Z,10.87
2018-06-23T04:37:27.833Z,10.97
2018-06-23T04:38:27.769Z,10.95
2018-06-23T04:39:27.707Z,10.91
2018-06-23T04:40:27.643Z,11.01
2018-06-23T04:41:27.578Z,11.09
2018-06-23T04:42:27.517Z,11.01
2018-06-23T04:43:27.452Z,11.01
2018-06-23T04:44:27.388Z,11.08
2018-06-23T04:45:27.329Z,11.08
2018-06-23T04:46:27.262Z,11.15
2018-06-23T04:47:27.200Z,11.15
2018-06-23T04:48:27.134Z,11.20
2018-06-23T04:49:27.072Z,11.27
2018-06-23T04:50:27.013Z,11.30
2018-06-23T04:51:26.948Z,11.36
2018-06-23T04:52:26.882Z,11.36
2018-06-23T04:53:26.821Z,11.40
2018-06-23T04:54:26.759Z,11.48
2018-06-23T04:55:26.692Z,11.49
2018-06-23T04:56:26.629Z,11.56
2018-06-23T04:57:26.564Z,11.66
2018-06-23T04:58:26.502Z,11.62
2018-06-23T04:59:26.441Z,11.66
2018-06-23T05:00:26.396Z,11.62
2018-06-23T05:01:26.312Z,11.66
2018-06-23T05:02:26.249Z,11.80
2018-06-23T05:03:26.185Z,11.82
2018-06-23T05:04:26.121Z,11.87
2018-06-23T05:05:26.058Z,11.88
2018-06-23T05:06:25.996Z,11.93
2018-06-23T05:07:25.934Z,11.87
2018-06-23T05:08:25.869Z,11.95
2018-06-23T05:09:25.806Z,11.85
2018-06-23T05:10:25.742Z,11.99
2018-06-23T05:11:25.680Z,12.08
2018-06-23T05:12:25.621Z,11.99
2018-06-23T05:13:25.554Z,12.10
2018-06-23T05:14:25.491Z,12.28
2018-06-23T05:15:25.426Z,12.23
2018-06-23T05:16:25.364Z,12.22
2018-06-23T05:17:25.305Z,12.28
2018-06-23T05:18:25.239Z,12.28
2018-06-23T05:19:25.173Z,12.30
2018-06-23T05:20:25.109Z,12.29
2018-06-23T05:21:25.050Z,12.44
2018-06-23T05:22:24.986Z,12.40
2018-06-23T05:23:24.921Z,12.48
2018-06-23T05:24:24.858Z,12.50
2018-06-23T05:25:24.796Z,12.51
2018-06-23T05:26:24.732Z,12.66
2018-06-23T05:27:24.671Z,12.65
2018-06-23T05:28:24.607Z,12.58
2018-06-23T05:29:24.544Z,12.63
2018-06-23T05:30:24.479Z,12.62
2018-06-23T05:31:24.418Z,12.73
2018-06-23T05:32:24.354Z,12.71
2018-06-23T05:33:24.291Z,12.71
2018-06-23T05:34:24.228Z,12.69
2018-06-23T05:35:24.167Z,12.77
2018-06-23T05:36:24.102Z,12.83
2018-06-23T05:37:24.038Z,12.77
2018-06-23T05:38:23.981Z,12.76
2018-06-23T05:39:23.908Z,12.79
2018-06-23T05:40:23.850Z,12.77
2018-06-23T05:41:23.791Z,12.77
2018-06-23T05:42:23.763Z,12.79
2018-06-23T05:43:23.668Z,12.80
2018-06-23T05:44:23.598Z,12.80
2018-06-23T05:45:23.540Z,12.87
2018-06-23T05:46:23.474Z,12.88
2018-06-23T05:47:23.410Z,13.01
2018-06-23T05:48:23.346Z,12.91
2018-06-23T05:49:23.285Z,12.96
2018-06-23T05:50:23.224Z,13.05
2018-06-23T05:51:23.164Z,13.11
2018-06-23T05:52:23.097Z,12.99
2018-06-23T05:53:23.035Z,13.16
2018-06-23T05:54:22.971Z,13.14
2018-06-23T05:55:22.909Z,13.23
2018-06-23T05:56:22.843Z,13.35
2018-06-23T05:57:22.781Z,13.24
2018-06-23T05:58:22.720Z,13.26
2018-06-23T05:59:22.658Z,13.23
2018-06-23T06:00:22.594Z,13.36
2018-06-23T06:01:22.531Z,13.42
2018-06-23T06:02:22.478Z,13.36
2018-06-23T06:03:22.408Z,13.40
2018-06-23T06:04:22.346Z,13.42
2018-06-23T06:05:22.279Z,13.47
2018-06-23T06:06:22.228Z,13.58
2018-06-23T06:07:22.156Z,13.64
2018-06-23T06:08:22.091Z,13.64
2018-06-23T06:09:22.028Z,13.71
2018-06-23T06:10:21.967Z,13.71
2018-06-23T06:11:21.914Z,13.68
2018-06-23T06:12:21.840Z,13.72
2018-06-23T06:13:21.778Z,13.78
2018-06-23T06:14:21.720Z,13.85
2018-06-23T06:15:21.653Z,13.90
2018-06-23T06:16:21.589Z,14.00
2018-06-23T06:17:21.528Z,13.94
2018-06-23T06:18:21.467Z,14.04
2018-06-23T06:19:21.403Z,14.18
2018-06-23T06:20:21.341Z,14.12
2018-06-23T06:21:21.278Z,14.30
2018-06-23T06:22:21.215Z,14.34
2018-06-23T06:23:21.153Z,14.33
2018-06-23T06:24:21.090Z,14.30
2018-06-23T06:25:21.028Z,14.40
2018-06-23T06:26:20.964Z,14.41
2018-06-23T06:27:20.904Z,14.37
2018-06-23T06:28:20.842Z,14.44
2018-06-23T06:29:20.784Z,14.37
2018-06-23T06:30:20.718Z,14.48
2018-06-23T06:31:20.656Z,14.38
2018-06-23T06:32:20.593Z,14.40
2018-06-23T06:33:20.536Z,14.41
2018-06-23T06:34:20.468Z,14.48
2018-06-23T06:35:20.405Z,14.56
2018-06-23T06:36:20.344Z,14.55
2018-06-23T06:37:20.279Z,14.63
2018-06-23T06:38:20.218Z,14.61
2018-06-23T06:39:20.168Z,14.63
2018-06-23T06:40:20.095Z,14.71
2018-06-23T06:41:20.033Z,14.77
2018-06-23T06:42:19.970Z,14.85
2018-06-23T06:43:19.908Z,14.77
2018-06-23T06:44:19.847Z,14.87
2018-06-23T06:45:19.786Z,14.79
2018-06-23T06:46:19.724Z,14.77
2018-06-23T06:47:19.659Z,14.79
2018-06-23T06:48:19.597Z,14.89
2018-06-23T06:49:19.536Z,14.95
2018-06-23T06:50:19.475Z,15.01
2018-06-23T06:51:19.412Z,15.01
2018-06-23T06:52:19.350Z,14.90
2018-06-23T06:53:19.291Z,14.93
2018-06-23T06:54:19.227Z,14.97
2018-06-23T06:55:19.166Z,15.03
2018-06-23T06:56:19.108Z,15.05
2018-06-23T06:57:19.044Z,15.11
2018-06-23T06:58:18.981Z,15.11
2018-06-23T06:59:18.918Z,15.14
2018-06-23T07:00:18.857Z,15.20
2018-06-23T07:01:18.793Z,15.36
2018-06-23T07:02:18.733Z,15.35
2018-06-23T07:03:18.672Z,15.25
2018-06-23T07:04:18.608Z,15.05
2018-06-23T07:05:18.549Z,15.10
2018-06-23T07:06:18.485Z,15.11
2018-06-23T07:07:18.423Z,15.20
2018-06-23T07:08:18.362Z,15.27
2018-06-23T07:09:18.301Z,15.41
2018-06-23T07:10:18.241Z,15.51
2018-06-23T07:11:18.179Z,15.59
2018-06-23T07:12:18.116Z,15.78
2018-06-23T07:13:18.053Z,15.78
2018-06-23T07:14:17.997Z,15.72
2018-06-23T07:15:17.931Z,15.58
2018-06-23T07:16:17.870Z,15.48
2018-06-23T07:17:17.809Z,15.47
2018-06-23T07:18:17.744Z,15.43
2018-06-23T07:19:17.685Z,15.51
2018-06-23T07:20:17.624Z,15.52
2018-06-23T07:21:17.566Z,15.56
2018-06-23T07:22:17.504Z,15.66
2018-06-23T07:23:17.440Z,15.83
2018-06-23T07:24:17.379Z,15.95
2018-06-23T07:25:17.320Z,16.09
2018-06-23T07:26:17.262Z,16.03
2018-06-23T07:27:17.199Z,16.08
2018-06-23T07:28:17.133Z,15.93
2018-06-23T07:29:17.074Z,16.00
2018-06-23T07:30:17.012Z,16.09
2018-06-23T07:31:16.952Z,16.08
2018-06-23T07:32:16.888Z,16.03
2018-06-23T07:33:16.827Z,15.93
2018-06-23T07:34:16.830Z,15.99
2018-06-23T07:35:16.860Z,15.85
2018-06-23T07:36:16.644Z,15.96
2018-06-23T07:37:16.584Z,15.98
2018-06-23T07:38:16.521Z,16.03
2018-06-23T07:39:16.460Z,16.13
2018-06-23T07:40:16.398Z,16.28
2018-06-23T07:41:16.337Z,16.33
2018-06-23T07:42:16.287Z,16.37
2018-06-23T07:43:16.213Z,16.46
2018-06-23T07:44:16.153Z,16.40
2018-06-23T07:45:16.094Z,16.39
2018-06-23T07:46:16.037Z,16.46
2018-06-23T07:47:15.976Z,16.47
2018-06-23T07:48:15.908Z,16.46
2018-06-23T07:49:15.858Z,16.43
2018-06-23T07:50:15.805Z,16.40
2018-06-23T07:51:15.724Z,16.42
2018-06-23T07:52:15.667Z,16.37
2018-06-23T07:53:15.606Z,16.43
2018-06-23T07:54:15.550Z,16.57
2018-06-23T07:55:15.483Z,16.54
2018-06-23T07:56:15.477Z,16.59
2018-06-23T07:57:15.363Z,16.57
2018-06-23T07:58:15.302Z,16.51
2018-06-23T07:59:15.240Z,16.39
2018-06-23T08:00:15.180Z,16.43
2018-06-23T08:01:15.117Z,16.57
2018-06-23T08:02:15.056Z,16.59
2018-06-23T08:03:14.996Z,16.62
2018-06-23T08:04:14.938Z,16.64
2018-06-23T08:05:14.873Z,16.72
2018-06-23T08:06:14.815Z,16.90
2018-06-23T08:07:14.752Z,16.83
2018-06-23T08:08:14.694Z,16.94
2018-06-23T08:09:14.630Z,17.04
2018-06-23T08:10:14.569Z,17.06
2018-06-23T08:11:14.509Z,17.14
2018-06-23T08:12:14.448Z,17.10
2018-06-23T08:13:14.388Z,17.20
2018-06-23T08:14:14.326Z,17.34
2018-06-23T08:15:14.267Z,17.41
2018-06-23T08:16:14.205Z,17.34
2018-06-23T08:17:14.145Z,17.31
2018-06-23T08:18:14.085Z,17.22
2018-06-23T08:19:14.027Z,17.39
2018-06-23T08:20:13.964Z,17.50
2018-06-23T08:21:13.903Z,17.66
2018-06-23T08:22:13.844Z,17.59
2018-06-23T08:23:13.786Z,17.62
2018-06-23T08:24:13.719Z,17.72
2018-06-23T08:25:13.664Z,17.83
2018-06-23T08:26:13.614Z,17.78
2018-06-23T08:27:13.545Z,17.73
2018-06-23T08:28:13.525Z,17.66
2018-06-23T08:29:13.419Z,17.65
2018-06-23T08:30:13.360Z,17.46
2018-06-23T08:31:13.304Z,17.47
2018-06-23T08:32:13.238Z,17.43
2018-06-23T08:33:13.180Z,17.45
2018-06-23T08:34:13.121Z,17.37
2018-06-23T08:35:13.060Z,17.24
2018-06-23T08:36:13.003Z,17.13
2018-06-23T08:37:12.939Z,17.10
2018-06-23T08:38:12.880Z,17.12
2018-06-23T08:39:12.820Z,17.22
2018-06-23T08:40:12.759Z,17.22
2018-06-23T08:41:12.699Z,17.25
2018-06-23T08:42:12.639Z,17.37
2018-06-23T08:43:12.581Z,17.43
2018-06-23T08:44:12.518Z,17.50
2018-06-23T08:45:12.458Z,17.57
2018-06-23T08:46:12.397Z,17.68
2018-06-23T08:47:12.338Z,17.83
2018-06-23T08:48:12.282Z,17.78
2018-06-23T08:49:12.250Z,17.91
2018-06-23T08:50:12.157Z,18.11
2018-06-23T08:51:12.099Z,18.24
2018-06-23T08:52:12.040Z,18.28
2018-06-23T08:53:11.977Z,18.39
2018-06-23T08:54:11.918Z,18.27
2018-06-23T08:55:11.859Z,18.30
2018-06-23T08:56:11.797Z,18.36
2018-06-23T08:57:11.742Z,18.46
2018-06-23T08:58:11.678Z,18.78
2018-06-23T08:59:11.617Z,19.07
2018-06-23T09:00:11.556Z,19.16
2018-06-23T09:01:11.498Z,19.31
2018-06-23T09:02:11.443Z,19.44
2018-06-23T09:03:11.378Z,19.47
2018-06-23T09:04:11.322Z,19.45
2018-06-23T09:05:11.263Z,19.57
2018-06-23T09:06:11.199Z,19.47
2018-06-23T09:07:11.142Z,19.44
2018-06-23T09:08:11.081Z,19.39
2018-06-23T09:09:11.022Z,19.13
2018-06-23T09:10:10.965Z,18.68
2018-06-23T09:11:10.912Z,18.43
2018-06-23T09:12:10.844Z,18.46
2018-06-23T09:13:10.785Z,18.27
2018-06-23T09:14:10.727Z,18.11
2018-06-23T09:15:10.668Z,18.13
2018-06-23T09:16:10.609Z,18.09
2018-06-23T09:17:10.550Z,17.97
2018-06-23T09:18:10.491Z,17.90
2018-06-23T09:19:10.433Z,17.86
2018-06-23T09:20:10.371Z,17.78
2018-06-23T09:21:10.312Z,17.59
2018-06-23T09:22:10.265Z,17.59
2018-06-23T09:23:10.193Z,17.69
2018-06-23T09:24:10.133Z,17.78
2018-06-23T09:25:10.076Z,17.83
2018-06-23T09:26:10.016Z,18.12
2018-06-23T09:27:09.957Z,18.45
2018-06-23T09:28:09.900Z,18.94
2018-06-23T09:29:09.837Z,19.42
2018-06-23T09:30:09.779Z,19.87
2018-06-23T09:31:09.719Z,20.18
2018-06-23T09:32:09.658Z,20.19
2018-06-23T09:33:09.601Z,20.09
2018-06-23T09:34:09.543Z,19.99
2018-06-23T09:35:09.484Z,20.14
2018-06-23T09:36:09.424Z,19.82
2018-06-23T09:37:09.366Z,19.75
2018-06-23T09:38:09.307Z,19.57
2018-06-23T09:39:09.252Z,19.34
2018-06-23T09:40:09.189Z,19.56
2018-06-23T09:41:09.134Z,19.93
2018-06-23T09:42:09.079Z,19.74
2018-06-23T09:43:09.018Z,19.74
2018-06-23T09:44:08.958Z,19.75
2018-06-23T09:45:08.901Z,19.74
2018-06-23T09:46:08.881Z,20.23
2018-06-23T09:47:08.786Z,20.27
2018-06-23T09:48:08.856Z,20.19
2018-06-23T09:49:08.669Z,20.04
2018-06-23T09:50:08.613Z,19.62
2018-06-23T09:51:08.566Z,19.38
2018-06-23T09:52:08.496Z,19.17
2018-06-23T09:53:08.437Z,18.85
2018-06-23T09:54:08.379Z,18.81
2018-06-23T09:55:08.324Z,18.68
2018-06-23T09:56:08.264Z,18.63
2018-06-23T09:57:08.205Z,18.56
2018-06-23T09:58:08.146Z,18.58
2018-06-23T09:59:08.090Z,18.57
2018-06-23T10:00:08.031Z,18.57
2018-06-23T10:01:07.974Z,18.48
2018-06-23T10:02:07.911Z,18.43
2018-06-23T10:03:07.862Z,18.52
2018-06-23T10:04:07.801Z,18.75
2018-06-23T10:05:07.747Z,18.93
2018-06-23T10:06:07.682Z,19.08
2018-06-23T10:07:07.637Z,19.64
2018-06-23T10:08:07.561Z,19.72
2018-06-23T10:09:07.507Z,19.63
2018-06-23T10:10:07.446Z,19.60
2018-06-23T10:11:07.390Z,19.42
2018-06-23T10:12:07.329Z,19.32
2018-06-23T10:13:07.271Z,19.04
2018-06-23T10:14:07.213Z,18.88
2018-06-23T10:15:07.158Z,18.71
2018-06-23T10:16:07.095Z,18.67
2018-06-23T10:17:07.038Z,18.60
2018-06-23T10:18:06.979Z,18.49
2018-06-23T10:19:06.919Z,18.42
2018-06-23T10:20:06.861Z,18.46
2018-06-23T10:21:06.815Z,18.46
2018-06-23T10:22:06.748Z,18.31
2018-06-23T10:23:06.690Z,18.26
2018-06-23T10:24:06.631Z,18.28
2018-06-23T10:25:06.569Z,18.33
2018-06-23T10:26:06.509Z,18.41
2018-06-23T10:27:06.451Z,18.41
2018-06-23T10:28:06.390Z,18.43
2018-06-23T10:29:06.331Z,18.48
2018-06-23T10:30:06.272Z,18.48
2018-06-23T10:31:06.220Z,18.38
2018-06-23T10:32:06.160Z,18.45
2018-06-23T10:33:06.098Z,18.41
2018-06-23T10:34:06.036Z,18.30
2018-06-23T10:35:05.978Z,18.31
2018-06-23T10:36:05.918Z,18.42
2018-06-23T10:37:05.858Z,18.39
2018-06-23T10:38:05.807Z,18.38
2018-06-23T10:39:05.740Z,18.43
2018-06-23T10:40:05.753Z,18.45
2018-06-23T10:41:05.621Z,18.58
2018-06-23T10:42:05.562Z,18.61
2018-06-23T10:43:05.503Z,18.56
2018-06-23T10:44:05.440Z,18.45
2018-06-23T10:45:05.384Z,18.31
2018-06-23T10:46:05.342Z,18.33
2018-06-23T10:47:05.263Z,18.15
2018-06-23T10:48:05.206Z,18.09
2018-06-23T10:49:05.151Z,18.03
2018-06-23T10:50:05.109Z,17.94
2018-06-23T10:51:05.032Z,18.02
2018-06-23T10:52:04.964Z,18.08
2018-06-23T10:53:04.908Z,18.09
2018-06-23T10:54:04.848Z,18.24
2018-06-23T10:55:04.787Z,18.28
2018-06-23T10:56:04.731Z,18.60
2018-06-23T10:57:04.668Z,18.67
2018-06-23T10:58:04.610Z,18.76
2018-06-23T10:59:04.551Z,18.71
2018-06-23T11:00:04.492Z,18.78
2018-06-23T11:01:04.432Z,18.76
2018-06-23T11:02:04.373Z,18.85
2018-06-23T11:03:04.312Z,18.78
2018-06-23T11:04:04.252Z,18.82
2018-06-23T11:05:04.200Z,18.76
2018-06-23T11:06:04.137Z,18.79
2018-06-23T11:07:04.075Z,18.89
2018-06-23T11:08:04.017Z,18.97
2018-06-23T11:09:03.954Z,19.07
2018-06-23T11:10:03.896Z,19.07
2018-06-23T11:11:03.838Z,18.91
2018-06-23T11:12:03.777Z,18.86
2018-06-23T11:13:03.719Z,18.83
2018-06-23T11:14:03.658Z,18.91
2018-06-23T11:15:03.601Z,18.97
2018-06-23T11:16:03.543Z,18.98
2018-06-23T11:17:03.482Z,19.13
2018-06-23T11:18:03.425Z,19.19
2018-06-23T11:19:03.364Z,19.12
2018-06-23T11:20:03.302Z,19.07
2018-06-23T11:21:03.242Z,19.12
2018-06-23T11:22:03.183Z,19.09
2018-06-23T11:23:03.125Z,19.19
2018-06-23T11:24:03.066Z,19.23
2018-06-23T11:25:03.013Z,19.17
2018-06-23T11:26:02.948Z,19.17
2018-06-23T11:27:02.892Z,19.09
2018-06-23T11:28:02.830Z,19.15
2018-06-23T11:29:02.770Z,19.15
2018-06-23T11:30:02.717Z,19.26
2018-06-23T11:31:02.653Z,19.20
2018-06-23T11:32:02.594Z,19.23
2018-06-23T11:33:02.533Z,19.23
2018-06-23T11:34:02.475Z,19.34
2018-06-23T11:35:02.414Z,19.17
2018-06-23T11:36:02.358Z,19.16
2018-06-23T11:37:02.300Z,19.12
2018-06-23T11:38:02.243Z,19.12
2018-06-23T11:39:02.185Z,19.00
2018-06-23T11:40:02.131Z,18.86
2018-06-23T11:41:02.060Z,18.86
2018-06-23T11:42:02.002Z,18.86
2018-06-23T11:43:01.942Z,18.83
2018-06-23T11:44:01.888Z,18.82
2018-06-23T11:45:01.825Z,18.79
2018-06-23T11:46:01.765Z,18.79
2018-06-23T11:47:01.707Z,18.78
2018-06-23T11:48:01.645Z,18.82
2018-06-23T11:49:01.586Z,18.86
2018-06-23T11:50:01.530Z,18.89
2018-06-23T11:51:01.467Z,18.86
2018-06-23T11:52:01.407Z,18.86
2018-06-23T11:53:01.382Z,18.74
2018-06-23T11:54:01.288Z,18.70
2018-06-23T11:55:01.231Z,18.70
2018-06-23T11:56:01.169Z,18.68
2018-06-23T11:57:01.111Z,18.66
2018-06-23T11:58:01.053Z,18.68
2018-06-23T11:59:00.992Z,18.68
2018-06-23T12:00:00.931Z,18.81
2018-06-23T12:01:00.872Z,18.82
2018-06-23T12:02:00.814Z,18.86
2018-06-23T12:03:00.754Z,18.83
2018-06-23T12:04:00.698Z,18.83
2018-06-23T12:05:00.633Z,18.86
2018-06-23T12:06:00.631Z,18.97
2018-06-23T12:07:00.514Z,19.20
2018-06-23T12:08:00.457Z,19.26
2018-06-23T12:09:00.396Z,19.57
2018-06-23T12:10:00.337Z,19.62
2018-06-23T12:11:00.287Z,19.74
2018-06-23T12:12:00.219Z,19.86
2018-06-23T12:13:00.166Z,20.07
2018-06-23T12:14:00.125Z,20.05
2018-06-23T12:15:00.162Z,20.18
2018-06-23T12:15:59.982Z,20.08
2018-06-23T12:16:59.920Z,19.93
2018-06-23T12:17:59.863Z,19.87
2018-06-23T12:18:59.802Z,19.89
2018-06-23T12:19:59.745Z,19.86
2018-06-23T12:20:59.685Z,19.75
2018-06-23T12:21:59.626Z,19.78
2018-06-23T12:22:59.566Z,19.70
2018-06-23T12:23:59.507Z,19.62
2018-06-23T12:24:59.448Z,19.54
2018-06-23T12:25:59.387Z,19.54
2018-06-23T12:26:59.338Z,19.52
2018-06-23T12:27:59.269Z,19.47
2018-06-23T12:28:59.215Z,19.47
2018-06-23T12:29:59.151Z,19.41
2018-06-23T12:30:59.096Z,19.38
2018-06-23T12:31:59.034Z,19.31
2018-06-23T12:32:58.975Z,19.32
2018-06-23T12:33:58.923Z,19.34
2018-06-23T12:34:58.856Z,19.35
2018-06-23T12:35:58.796Z,19.45
2018-06-23T12:36:58.739Z,19.41
2018-06-23T12:37:58.680Z,19.35
2018-06-23T12:38:58.619Z,19.41
2018-06-23T12:39:58.561Z,19.42
2018-06-23T12:40:58.505Z,19.49
2018-06-23T12:41:58.441Z,19.49
2018-06-23T12:42:58.384Z,19.39
2018-06-23T12:43:58.321Z,19.44
2018-06-23T12:44:58.264Z,19.32
2018-06-23T12:45:58.206Z,19.24
2018-06-23T12:46:58.147Z,19.19
2018-06-23T12:47:58.088Z,19.07
2018-06-23T12:48:58.029Z,19.01
2018-06-23T12:49:57.975Z,18.83
2018-06-23T12:50:57.909Z,18.86
2018-06-23T12:51:57.848Z,18.94